Terminal Aerodrome Forecast
Issued by NWS Sterling, VA

Home | Current Version | Previous Version | Text Only | Print | Product List | Glossary On
Versions: 1 2 3 4 5 6 7 8 9 10 11 12 13 14
407
FTUS41 KLWX 260520
TAFMRB
TAF
KMRB 260520Z 2606/2706 VRB03KT 3SM BR SCT040
      TEMPO 2607/2611 2SM BR
     FM261100 00000KT P6SM BKN025
     FM261500 00000KT P6SM BKN035=

USA.gov is the U.S. government's official web portal to all federal, state and local government web resources and services.